This is the latest recevied weather packets stored in our database for station/object K7OLI-13. If no packets are shown the sender has not sent any weather packets the latest 10 day(s).
| Time | Temp. | Humidity | Pressure | Rain* | Wind** | Luminosity | Snow |
|---|---|---|---|---|---|---|---|
| 1778076035 | 12.22° C | 91% | 1017.1 hPa | 0 mm | - | - | - |
| 1778071835 | 12.22° C | 89% | 1016.1 hPa | 0 mm | - | - | - |
| 1778069449 | 12.22° C | 90% | 1016.1 hPa | 0 mm | - | - | - |
| 1778066423 | 11.67° C | 92% | 1015.2 hPa | 0 mm | - | - | - |
| 1778064636 | 11.67° C | 93% | 1015.1 hPa | 0 mm | - | - | - |
| 1778061047 | 11.67° C | 93% | 1014.1 hPa | 0 mm | - | - | - |
| 1778052627 | 13.33° C | 86% | 1014.1 hPa | 0 mm | - | - | - |
| 1778047223 | 13.89° C | 85% | 1013.1 hPa | 0 mm | - | - | - |
| 1778041819 | 17.22° C | 77% | 1013.2 hPa | 0 mm | - | - | - |
| 1778032235 | 18.33° C | 71% | 1012.1 hPa | 0 mm | - | - | - |
| 1778029258 | 18.89° C | 69% | 1012.2 hPa | 0 mm | - | - | - |
| 1778028035 | 18.89° C | 69% | 1012.2 hPa | 0 mm | - | - | - |
| 1778024426 | 19.44° C | 66% | 1012.2 hPa | 0 mm | - | - | - |
| 1778022021 | 18.33° C | 70% | 1012.1 hPa | 0 mm | - | - | - |
| 1778014823 | 17.78° C | 72% | 1013.1 hPa | 0 mm | - | - | - |
| 1778014231 | 17.78° C | 73% | 1013.1 hPa | 0 mm | - | - | - |
| 1778008230 | 17.22° C | 73% | 1014.1 hPa | 0 mm | - | - | - |
| 1778005221 | 16.67° C | 73% | 1013.1 hPa | 0 mm | - | - | - |
| 1778004651 | 16.67° C | 75% | 1013.9 hPa | 0 mm | - | - | - |
| 1778001632 | 15.56° C | 77% | 1013.1 hPa | 0 mm | - | - | - |
| 1778001023 | 15.56° C | 77% | 1013.1 hPa | 0 mm | - | - | - |
| 1777998047 | 14.44° C | 81% | 1013.1 hPa | 0 mm | - | - | - |
| 1777996249 | 13.33° C | 85% | 1013.1 hPa | 0 mm | - | - | - |
| 1777991437 | 12.22° C | 89% | 1013.2 hPa | 0 mm | - | - | - |
| 1777984223 | 12.22° C | 90% | 1011.2 hPa | 0 mm | - | - | - |
* Rain latest hour (hover to see other rain measurements)
** Current wind speed in m/s (hover to see current wind gust speed)